createdAt,value
2022-11-28T00:01:41.380Z,101356.94
2022-11-28T00:04:09.561Z,101349.56
2022-11-28T00:06:40.683Z,101357.31
2022-11-28T00:09:08.775Z,101350.97
2022-11-28T00:11:36.672Z,101359.44
2022-11-28T00:14:03.664Z,101348.34
2022-11-28T00:16:30.703Z,101349.81
2022-11-28T00:19:01.205Z,101346.63
2022-11-28T00:21:28.924Z,101343.31
2022-11-28T00:23:55.835Z,101343.13
2022-11-28T00:26:30.230Z,101344.81
2022-11-28T00:28:58.853Z,101340.59
2022-11-28T00:31:29.582Z,101341.84
2022-11-28T00:33:56.785Z,101337.66
2022-11-28T00:36:24.414Z,101348.09
2022-11-28T00:38:52.039Z,101339.94
2022-11-28T00:41:26.422Z,101341.66
2022-11-28T00:43:53.648Z,101338.59
2022-11-28T00:46:23.190Z,101339.94
2022-11-28T00:48:50.735Z,101334.16
2022-11-28T00:51:30.508Z,101332.78
2022-11-28T00:54:00.279Z,101342.34
2022-11-28T00:56:32.206Z,101328.81
2022-11-28T00:58:59.529Z,101329.28
2022-11-28T01:01:32.694Z,101333.81
2022-11-28T01:04:03.793Z,101325.97
2022-11-28T01:06:44.980Z,101323.44
2022-11-28T01:09:22.495Z,101319.59
2022-11-28T01:11:51.840Z,101324.72
2022-11-28T01:14:21.216Z,101319.59
2022-11-28T01:16:48.906Z,101317.97
2022-11-28T01:19:16.538Z,101314.13
2022-11-28T01:21:44.424Z,101316.94
2022-11-28T01:24:11.732Z,101317.88
2022-11-28T01:26:40.409Z,101325.28
2022-11-28T01:29:10.859Z,101310.28
2022-11-28T01:31:38.325Z,101318.13
2022-11-28T01:34:05.270Z,101312.88
2022-11-28T01:36:32.230Z,101304.81
2022-11-28T01:38:59.167Z,101301.59
2022-11-28T01:41:28.297Z,101298.66
2022-11-28T01:44:02.292Z,101295.81
2022-11-28T01:46:30.440Z,101287.03
2022-11-28T01:49:05.635Z,101294.97
2022-11-28T01:51:34.440Z,101292.88
2022-11-28T01:54:02.571Z,101287.31
2022-11-28T01:56:39.990Z,101288.69
2022-11-28T01:59:11.767Z,101280.25
2022-11-28T02:01:39.623Z,101284.00
2022-11-28T02:04:06.945Z,101274.59
2022-11-28T02:06:34.342Z,101276.31
2022-11-28T02:09:01.279Z,101266.19
2022-11-28T02:12:22.058Z,101270.03
2022-11-28T02:15:01.029Z,101268.22
2022-11-28T02:18:06.450Z,101265.34
2022-11-28T02:21:04.603Z,101268.22
2022-11-28T02:24:08.497Z,101267.78
2022-11-28T02:26:53.409Z,101265.16
2022-11-28T02:32:37.153Z,101256.06
2022-11-28T02:35:54.324Z,101265.16
2022-11-28T02:39:09.657Z,101258.75
2022-11-28T02:41:56.737Z,101267.28
2022-11-28T02:45:01.018Z,101259.25
2022-11-28T02:47:37.913Z,101251.84
2022-11-28T02:50:22.062Z,101251.94
2022-11-28T02:53:00.551Z,101252.97
2022-11-28T02:55:27.732Z,101249.91
2022-11-28T02:57:55.687Z,101254.81
2022-11-28T03:00:34.996Z,101246.63
2022-11-28T03:03:39.412Z,101253.09
2022-11-28T03:06:22.082Z,101245.69
2022-11-28T03:09:19.295Z,101237.50
2022-11-28T03:12:21.659Z,101237.28
2022-11-28T03:15:06.318Z,101241.06
2022-11-28T03:17:55.316Z,101240.72
2022-11-28T03:21:07.478Z,101235.81
2022-11-28T03:23:46.339Z,101235.25
2022-11-28T03:26:20.529Z,101238.00
2022-11-28T03:28:56.169Z,101241.84
2022-11-28T03:31:38.652Z,101238.09
2022-11-28T03:34:09.521Z,101237.41
2022-11-28T03:36:52.143Z,101235.38
2022-11-28T03:39:23.892Z,101233.72
2022-11-28T03:41:59.512Z,101236.25
2022-11-28T03:44:37.957Z,101238.50
2022-11-28T03:47:07.210Z,101244.78
2022-11-28T03:49:43.317Z,101240.41
2022-11-28T03:52:29.507Z,101237.47
2022-11-28T03:55:07.725Z,101234.09
2022-11-28T03:58:00.872Z,101238.56
2022-11-28T04:00:27.900Z,101227.94
2022-11-28T04:03:16.268Z,101230.69
2022-11-28T04:05:55.467Z,101227.72
2022-11-28T04:08:26.261Z,101220.28
2022-11-28T04:10:57.289Z,101229.69
2022-11-28T04:13:32.941Z,101230.81
2022-11-28T04:16:36.171Z,101230.38
2022-11-28T04:19:10.547Z,101222.16
2022-11-28T04:22:07.396Z,101225.44
2022-11-28T04:24:45.554Z,101221.81
2022-11-28T04:27:20.293Z,101222.97
2022-11-28T04:29:55.624Z,101215.56
2022-11-28T04:32:25.393Z,101216.34
2022-11-28T04:35:04.836Z,101223.53
2022-11-28T04:37:34.731Z,101218.00
2022-11-28T04:40:02.464Z,101214.78
2022-11-28T04:42:54.541Z,101216.06
2022-11-28T04:45:37.778Z,101226.78
2022-11-28T04:48:05.928Z,101219.78
2022-11-28T04:50:47.262Z,101220.31
2022-11-28T04:53:27.533Z,101221.34
2022-11-28T04:56:05.135Z,101220.91
2022-11-28T04:58:41.242Z,101219.19
2022-11-28T05:01:14.654Z,101216.75
2022-11-28T05:03:42.957Z,101219.69
2022-11-28T05:06:10.188Z,101227.81
2022-11-28T05:08:37.315Z,101226.66
2022-11-28T05:11:04.393Z,101228.38
2022-11-28T05:13:31.403Z,101228.97
2022-11-28T05:16:01.630Z,101226.53
2022-11-28T05:18:28.591Z,101226.78
2022-11-28T05:20:57.974Z,101223.81
2022-11-28T05:23:24.920Z,101221.03
2022-11-28T05:25:51.862Z,101222.09
2022-11-28T05:28:18.909Z,101220.81
2022-11-28T05:30:45.861Z,101225.56
2022-11-28T05:33:12.799Z,101219.38
2022-11-28T05:35:40.313Z,101226.53
2022-11-28T05:38:12.108Z,101228.25
2022-11-28T05:40:44.231Z,101228.13
2022-11-28T05:43:12.203Z,101229.97
2022-11-28T05:45:44.008Z,101217.19
2022-11-28T05:48:11.858Z,101221.44
2022-11-28T05:50:42.742Z,101232.09
2022-11-28T05:53:10.482Z,101220.66
2022-11-28T05:55:41.225Z,101218.63
2022-11-28T05:58:08.582Z,101222.06
2022-11-28T06:00:35.657Z,101212.91
2022-11-28T06:03:04.073Z,101224.78
2022-11-28T06:05:47.510Z,101224.16
2022-11-28T06:08:14.570Z,101217.28
2022-11-28T06:10:41.632Z,101218.50
2022-11-28T06:13:09.186Z,101208.84
2022-11-28T06:15:38.145Z,101220.25
2022-11-28T06:18:05.792Z,101210.84
2022-11-28T06:20:35.251Z,101214.00
2022-11-28T06:23:02.243Z,101216.78
2022-11-28T06:25:29.547Z,101216.41
2022-11-28T06:27:56.504Z,101213.06
2022-11-28T06:30:23.499Z,101196.84
2022-11-28T06:32:50.437Z,101216.84
2022-11-28T06:35:17.481Z,101220.25
2022-11-28T06:37:44.462Z,101216.41
2022-11-28T06:40:11.596Z,101213.88
2022-11-28T06:42:38.632Z,101223.75
2022-11-28T06:45:06.510Z,101212.41
2022-11-28T06:47:33.568Z,101212.50
2022-11-28T06:50:00.527Z,101209.94
2022-11-28T06:52:27.829Z,101221.06
2022-11-28T06:54:55.121Z,101229.50
2022-11-28T06:57:22.357Z,101220.44
2022-11-28T06:59:50.698Z,101213.28
2022-11-28T07:02:17.806Z,101232.75
2022-11-28T07:04:44.851Z,101229.75
2022-11-28T07:07:16.256Z,101238.94
2022-11-28T07:09:44.201Z,101245.13
2022-11-28T07:12:11.347Z,101227.03
2022-11-28T07:14:38.396Z,101231.16
2022-11-28T07:17:05.417Z,101241.91
2022-11-28T07:19:32.410Z,101239.13
2022-11-28T07:21:59.381Z,101236.78
2022-11-28T07:24:26.366Z,101228.41
2022-11-28T07:26:53.523Z,101238.94
2022-11-28T07:29:20.508Z,101233.81
2022-11-28T07:31:47.536Z,101232.66
2022-11-28T07:34:14.549Z,101240.44
2022-11-28T07:36:41.548Z,101227.75
2022-11-28T07:39:12.510Z,101232.88
2022-11-28T07:41:39.393Z,101226.16
2022-11-28T07:44:06.339Z,101233.16
2022-11-28T07:46:34.205Z,101234.91
2022-11-28T07:49:01.930Z,101227.63
2022-11-28T07:51:33.529Z,101216.03
2022-11-28T07:54:02.105Z,101226.25
2022-11-28T07:57:04.054Z,101225.97
2022-11-28T07:59:20.405Z,101228.13
2022-11-28T08:01:48.744Z,101221.94
2022-11-28T08:04:15.781Z,101223.50
2022-11-28T08:06:44.378Z,101228.13
2022-11-28T08:09:14.638Z,101218.19
2022-11-28T08:11:41.765Z,101230.13
2022-11-28T08:14:08.865Z,101219.28
2022-11-28T08:16:37.021Z,101218.28
2022-11-28T08:19:04.351Z,101218.59
2022-11-28T08:21:33.706Z,101210.88
2022-11-28T08:24:03.080Z,101217.66
2022-11-28T08:26:32.427Z,101211.84
2022-11-28T08:29:01.567Z,101231.44
2022-11-28T08:31:35.956Z,101223.28
2022-11-28T08:34:07.098Z,101224.31
2022-11-28T08:36:34.265Z,101215.47
2022-11-28T08:39:22.988Z,101224.78
2022-11-28T08:41:49.950Z,101225.56
2022-11-28T08:44:16.900Z,101218.75
2022-11-28T08:46:44.181Z,101216.03
2022-11-28T08:49:11.151Z,101212.50
2022-11-28T08:51:38.177Z,101222.44
2022-11-28T08:54:05.581Z,101221.97
2022-11-28T08:56:32.578Z,101216.19
2022-11-28T08:59:00.541Z,101219.38
2022-11-28T09:01:28.000Z,101213.78
2022-11-28T09:03:56.099Z,101215.19
2022-11-28T09:06:24.533Z,101217.19
2022-11-28T09:08:53.604Z,101219.03
2022-11-28T09:11:22.745Z,101215.59
2022-11-28T09:13:50.478Z,101212.16
2022-11-28T09:16:17.858Z,101213.66
2022-11-28T09:18:44.879Z,101201.56
2022-11-28T09:21:14.851Z,101203.41
2022-11-28T09:23:44.308Z,101199.13
2022-11-28T09:26:15.066Z,101199.06
2022-11-28T09:28:42.856Z,101205.91
2022-11-28T09:31:10.304Z,101199.19
2022-11-28T09:33:37.607Z,101204.25
2022-11-28T09:36:14.369Z,101197.94
2022-11-28T09:38:41.853Z,101193.97
2022-11-28T09:41:47.402Z,101196.03
2022-11-28T09:44:24.056Z,101195.00
2022-11-28T09:46:58.307Z,101195.47
2022-11-28T09:49:40.900Z,101195.91
2022-11-28T09:52:46.586Z,101187.47
2022-11-28T09:55:44.677Z,101182.34
2022-11-28T09:58:48.016Z,101178.75
2022-11-28T10:02:00.563Z,101178.69
2022-11-28T10:04:59.440Z,101175.91
2022-11-28T10:08:05.064Z,101176.53
2022-11-28T10:11:03.953Z,101168.72
2022-11-28T10:14:08.675Z,101167.44
2022-11-28T10:17:21.449Z,101170.34
2022-11-28T10:20:00.642Z,101159.38
2022-11-28T10:22:37.877Z,101166.06
2022-11-28T10:25:31.003Z,101158.84
2022-11-28T10:27:58.394Z,101158.75
2022-11-28T10:30:37.645Z,101153.53
2022-11-28T10:33:25.579Z,101160.50
2022-11-28T10:35:59.423Z,101160.84
2022-11-28T10:38:29.150Z,101154.03
2022-11-28T10:41:17.631Z,101141.41
2022-11-28T10:43:57.126Z,101154.47
2022-11-28T10:46:44.023Z,101145.41
2022-11-28T10:49:48.271Z,101147.72
2022-11-28T10:52:50.666Z,101147.19
2022-11-28T10:56:31.571Z,101144.00
2022-11-28T10:59:08.476Z,101148.72
2022-11-28T11:01:43.788Z,101151.22
2022-11-28T11:04:26.589Z,101148.16
2022-11-28T11:07:10.133Z,101140.19
2022-11-28T11:09:39.675Z,101146.84
2022-11-28T11:12:23.674Z,101137.78
2022-11-28T11:14:50.594Z,101139.25
2022-11-28T11:17:37.724Z,101144.47
2022-11-28T11:20:23.455Z,101140.28
2022-11-28T11:23:00.673Z,101133.66
2022-11-28T11:25:32.935Z,101129.44
2022-11-28T11:28:04.233Z,101147.47
2022-11-28T11:30:45.931Z,101143.38
2022-11-28T11:33:17.437Z,101142.38
2022-11-28T11:35:49.550Z,101140.44
2022-11-28T11:38:38.876Z,101147.91
2022-11-28T11:41:30.654Z,101136.72
2022-11-28T11:44:37.787Z,101143.84
2022-11-28T11:47:10.242Z,101141.91
2022-11-28T11:49:49.763Z,101153.59
2022-11-28T11:52:27.688Z,101139.72
2022-11-28T11:54:57.275Z,101151.56
2022-11-28T11:57:35.962Z,101153.69
2022-11-28T12:00:18.219Z,101150.75
2022-11-28T12:03:01.026Z,101145.06
2022-11-28T12:05:52.358Z,101129.94
2022-11-28T12:08:55.753Z,101145.53
2022-11-28T12:11:32.194Z,101152.25
2022-11-28T12:14:34.409Z,101151.22
2022-11-28T12:18:16.784Z,101145.84
2022-11-28T12:21:09.972Z,101142.00
2022-11-28T12:24:08.443Z,101143.69
2022-11-28T12:27:10.708Z,101145.75
2022-11-28T12:30:02.678Z,101144.06
2022-11-28T12:32:57.170Z,101146.44
2022-11-28T12:35:50.554Z,101133.13
2022-11-28T12:38:58.597Z,101139.94
2022-11-28T12:41:57.006Z,101142.25
2022-11-28T12:44:54.081Z,101133.47
2022-11-28T12:47:44.678Z,101128.72
2022-11-28T12:50:20.753Z,101124.66
2022-11-28T12:53:19.804Z,101134.16
2022-11-28T12:56:07.819Z,101135.19
2022-11-28T12:58:54.996Z,101131.22
2022-11-28T13:01:30.864Z,101130.75
2022-11-28T13:04:26.688Z,101127.97
2022-11-28T13:07:28.259Z,101126.19
2022-11-28T13:10:21.821Z,101126.34
2022-11-28T13:13:06.709Z,101131.78
2022-11-28T13:15:52.164Z,101130.41
2022-11-28T13:18:58.566Z,101132.00
2022-11-28T13:21:49.482Z,101125.19
2022-11-28T13:24:52.508Z,101133.47
2022-11-28T13:27:32.426Z,101128.84
2022-11-28T13:30:20.603Z,101139.06
2022-11-28T13:33:01.403Z,101123.03
2022-11-28T13:35:29.519Z,101128.25
2022-11-28T13:38:47.101Z,101127.81
2022-11-28T13:42:01.215Z,101124.31
2022-11-28T13:44:29.671Z,101126.50
2022-11-28T13:46:56.960Z,101133.22
2022-11-28T13:49:27.407Z,101132.13
2022-11-28T13:52:41.335Z,101124.25
2022-11-28T13:55:36.903Z,101128.69
2022-11-28T13:58:31.613Z,101108.34
2022-11-28T14:01:16.297Z,101114.50
2022-11-28T14:04:07.811Z,101113.13
2022-11-28T14:06:45.222Z,101116.69
2022-11-28T14:09:12.081Z,101105.34
2022-11-28T14:12:21.358Z,101112.94
2022-11-28T14:15:15.213Z,101115.31
2022-11-28T14:17:54.749Z,101110.56
2022-11-28T14:20:50.532Z,101111.13
2022-11-28T14:23:31.884Z,101118.84
2022-11-28T14:25:59.738Z,101111.78
2022-11-28T14:28:36.864Z,101093.13
2022-11-28T14:31:30.606Z,101114.50
2022-11-28T14:34:03.554Z,101109.47
2022-11-28T14:36:34.217Z,101112.19
2022-11-28T14:39:16.316Z,101103.31
2022-11-28T14:42:04.473Z,101107.09
2022-11-28T14:44:51.467Z,101114.16
2022-11-28T14:47:34.784Z,101100.84
2022-11-28T14:50:07.921Z,101098.38
2022-11-28T14:52:40.346Z,101100.06
2022-11-28T14:55:10.684Z,101101.19
2022-11-28T14:57:44.383Z,101107.78
2022-11-28T15:00:48.390Z,101096.75
2022-11-28T15:03:32.084Z,101098.06
2022-11-28T15:06:10.619Z,101108.16
2022-11-28T15:09:25.187Z,101104.59
2022-11-28T15:12:13.336Z,101103.50
2022-11-28T15:14:40.777Z,101107.19
2022-11-28T15:17:13.992Z,101108.41
2022-11-28T15:19:48.149Z,101099.09
2022-11-28T15:22:38.402Z,101105.53
2022-11-28T15:25:21.123Z,101108.59
2022-11-28T15:27:48.435Z,101104.41
2022-11-28T15:30:26.392Z,101102.47
2022-11-28T15:33:00.206Z,101110.75
2022-11-28T15:35:28.461Z,101102.00
2022-11-28T15:37:58.180Z,101106.50
2022-11-28T15:40:35.114Z,101106.44
2022-11-28T15:43:09.561Z,101111.13
2022-11-28T15:45:42.335Z,101109.81
2022-11-28T15:48:47.065Z,101118.16
2022-11-28T15:51:32.790Z,101103.59
2022-11-28T15:54:03.395Z,101117.66
2022-11-28T15:56:30.614Z,101108.50
2022-11-28T15:58:57.672Z,101094.16
2022-11-28T16:01:27.702Z,101105.84
2022-11-28T16:04:10.592Z,101104.31
2022-11-28T16:06:40.179Z,101100.03
2022-11-28T16:09:29.232Z,101109.84
2022-11-28T16:11:56.593Z,101100.47
2022-11-28T16:14:43.016Z,101098.84
2022-11-28T16:17:26.028Z,101101.72
2022-11-28T16:19:54.998Z,101095.34
2022-11-28T16:22:27.215Z,101102.47
2022-11-28T16:24:55.670Z,101095.88
2022-11-28T16:27:39.715Z,101105.94
2022-11-28T16:30:44.717Z,101099.69
2022-11-28T16:33:42.248Z,101098.38
2022-11-28T16:36:37.445Z,101103.78
2022-11-28T16:39:10.184Z,101097.94
2022-11-28T16:42:04.852Z,101099.28
2022-11-28T16:44:33.582Z,101102.50
2022-11-28T16:47:01.582Z,101103.88
2022-11-28T16:49:47.906Z,101101.31
2022-11-28T16:52:26.649Z,101098.63
2022-11-28T16:54:55.529Z,101110.03
2022-11-28T16:57:26.518Z,101114.41
2022-11-28T16:59:57.186Z,101111.41
2022-11-28T17:02:26.874Z,101110.13
2022-11-28T17:04:54.279Z,101111.19
2022-11-28T17:07:24.656Z,101102.00
2022-11-28T17:09:51.973Z,101105.25
2022-11-28T17:12:27.420Z,101107.81
2022-11-28T17:14:56.429Z,101105.97
2022-11-28T17:17:24.293Z,101115.88
2022-11-28T17:19:51.802Z,101106.44
2022-11-28T17:22:26.354Z,101109.44
2022-11-28T17:25:01.256Z,101119.22
2022-11-28T17:27:28.649Z,101120.63
2022-11-28T17:29:55.837Z,101123.97
2022-11-28T17:32:22.834Z,101124.69
2022-11-28T17:34:49.762Z,101118.28
2022-11-28T17:37:16.926Z,101110.75
2022-11-28T17:40:03.969Z,101110.22
2022-11-28T17:42:31.752Z,101121.59
2022-11-28T17:44:58.728Z,101111.56
2022-11-28T17:47:25.652Z,101119.84
2022-11-28T17:49:52.954Z,101124.50
2022-11-28T17:52:21.133Z,101122.94
2022-11-28T17:54:48.165Z,101130.22
2022-11-28T17:57:15.089Z,101119.03
2022-11-28T17:59:42.421Z,101125.22
2022-11-28T18:02:11.217Z,101128.41
2022-11-28T18:04:38.366Z,101119.59
2022-11-28T18:07:05.298Z,101129.59
2022-11-28T18:09:32.354Z,101121.53
2022-11-28T18:11:59.348Z,101124.59
2022-11-28T18:14:26.314Z,101116.94
2022-11-28T18:16:53.277Z,101125.59
2022-11-28T18:19:20.231Z,101124.34
2022-11-28T18:21:47.143Z,101110.09
2022-11-28T18:24:14.157Z,101106.97
2022-11-28T18:26:41.223Z,101118.31
2022-11-28T18:29:08.161Z,101118.78
2022-11-28T18:31:35.795Z,101125.78
2022-11-28T18:34:05.862Z,101129.34
2022-11-28T18:36:37.115Z,101124.88
2022-11-28T18:39:11.565Z,101128.44
2022-11-28T18:41:39.928Z,101126.31
2022-11-28T18:44:07.826Z,101134.31
2022-11-28T18:46:35.520Z,101123.25
2022-11-28T18:49:03.293Z,101129.78
2022-11-28T18:51:34.087Z,101124.31
2022-11-28T18:54:04.668Z,101130.00
2022-11-28T18:56:31.873Z,101127.56
2022-11-28T18:58:59.046Z,101136.16
2022-11-28T19:01:30.539Z,101141.97
2022-11-28T19:04:11.092Z,101127.31
2022-11-28T19:06:40.433Z,101137.81
2022-11-28T19:09:13.646Z,101134.28
2022-11-28T19:11:41.942Z,101130.00
2022-11-28T19:14:10.490Z,101125.34
2022-11-28T19:16:38.201Z,101135.75
2022-11-28T19:19:06.561Z,101130.75
2022-11-28T19:21:35.692Z,101133.38
2022-11-28T19:24:04.174Z,101139.38
2022-11-28T19:26:34.068Z,101147.41
2022-11-28T19:29:02.463Z,101144.59
2022-11-28T19:31:35.339Z,101132.09
2022-11-28T19:34:05.081Z,101144.59
2022-11-28T19:36:40.603Z,101141.47
2022-11-28T19:39:13.062Z,101138.25
2022-11-28T19:41:40.172Z,101146.84
2022-11-28T19:44:07.082Z,101137.66
2022-11-28T19:46:35.866Z,101143.94
2022-11-28T19:49:04.570Z,101132.91
2022-11-28T19:51:31.741Z,101137.81
2022-11-28T19:54:03.487Z,101147.84
2022-11-28T19:56:31.491Z,101125.94
2022-11-28T19:58:59.824Z,101146.75
2022-11-28T20:01:26.897Z,101136.03
2022-11-28T20:03:54.299Z,101142.22
2022-11-28T20:06:28.271Z,101135.88
2022-11-28T20:08:58.444Z,101146.84
2022-11-28T20:11:32.965Z,101140.75
2022-11-28T20:14:06.716Z,101146.06
2022-11-28T20:16:35.728Z,101139.56
2022-11-28T20:19:04.407Z,101144.13
2022-11-28T20:21:32.025Z,101148.00
2022-11-28T20:24:04.661Z,101146.19
2022-11-28T20:26:39.800Z,101156.69
2022-11-28T20:29:08.376Z,101155.69
2022-11-28T20:31:42.093Z,101154.78
2022-11-28T20:34:09.118Z,101157.75
2022-11-28T20:36:36.418Z,101162.34
2022-11-28T20:39:04.881Z,101155.72
2022-11-28T20:41:32.031Z,101155.81
2022-11-28T20:44:00.852Z,101159.75
2022-11-28T20:46:34.058Z,101157.91
2022-11-28T20:49:04.727Z,101165.59
2022-11-28T20:51:34.358Z,101158.84
2022-11-28T20:54:02.276Z,101153.22
2022-11-28T20:56:41.842Z,101155.44
2022-11-28T20:59:18.851Z,101151.94
2022-11-28T21:01:45.807Z,101157.41
2022-11-28T21:04:15.249Z,101156.47
2022-11-28T21:06:43.948Z,101154.53
2022-11-28T21:09:11.592Z,101152.22
2022-11-28T21:14:27.382Z,101156.38
2022-11-28T21:16:55.828Z,101155.81
2022-11-28T21:19:23.005Z,101153.38
2022-11-28T21:21:50.033Z,101158.72
2022-11-28T21:24:17.107Z,101156.50
2022-11-28T21:26:48.117Z,101156.09
2022-11-28T21:29:20.037Z,101142.47
2022-11-28T21:31:47.407Z,101164.16
2022-11-28T21:34:16.760Z,101160.91
2022-11-28T21:36:44.398Z,101153.22
2022-11-28T21:39:19.767Z,101163.25
2022-11-28T21:41:47.204Z,101149.97
2022-11-28T21:44:14.225Z,101153.78
2022-11-28T21:46:41.190Z,101159.63
2022-11-28T21:49:08.217Z,101142.59
2022-11-28T21:51:35.210Z,101155.81
2022-11-28T21:54:02.744Z,101151.66
2022-11-28T21:56:29.720Z,101147.50
2022-11-28T21:58:56.765Z,101143.91
2022-11-28T22:01:23.762Z,101143.88
2022-11-28T22:03:50.833Z,101140.09
2022-11-28T22:06:21.620Z,101144.66
2022-11-28T22:08:49.376Z,101142.03
2022-11-28T22:11:17.068Z,101141.53
2022-11-28T22:13:46.092Z,101140.38
2022-11-28T22:16:19.687Z,101143.47
2022-11-28T22:18:48.005Z,101135.69
2022-11-28T22:24:03.519Z,101134.38
2022-11-28T22:26:30.485Z,101137.09
2022-11-28T22:28:58.924Z,101132.31
2022-11-28T22:31:26.186Z,101127.50
2022-11-28T22:33:53.662Z,101138.44
2022-11-28T22:36:21.167Z,101135.69
2022-11-28T22:38:50.028Z,101131.53
2022-11-28T22:41:26.445Z,101139.72
2022-11-28T22:43:56.686Z,101141.28
2022-11-28T22:46:23.878Z,101135.69
2022-11-28T22:48:51.875Z,101134.28
2022-11-28T22:51:25.016Z,101132.84
2022-11-28T22:53:56.965Z,101129.31
2022-11-28T22:56:24.355Z,101138.66
2022-11-28T22:58:51.684Z,101133.84
2022-11-28T23:01:29.218Z,101136.59
2022-11-28T23:03:56.568Z,101131.13
2022-11-28T23:06:27.874Z,101128.03
2022-11-28T23:08:56.066Z,101131.41
2022-11-28T23:11:26.612Z,101136.72
2022-11-28T23:13:54.242Z,101129.69
2022-11-28T23:16:22.451Z,101133.22
2022-11-28T23:18:53.193Z,101126.97
2022-11-28T23:21:21.887Z,101132.94
2022-11-28T23:23:49.283Z,101127.88
2022-11-28T23:26:22.386Z,101140.59
2022-11-28T23:28:50.220Z,101132.69
2022-11-28T23:31:27.417Z,101130.63
2022-11-28T23:33:54.831Z,101132.56
2022-11-28T23:36:28.498Z,101134.78
2022-11-28T23:38:59.371Z,101127.75
2022-11-28T23:41:27.719Z,101124.91
2022-11-28T23:43:55.287Z,101133.56
2022-11-28T23:46:23.257Z,101126.44
2022-11-28T23:48:50.376Z,101129.03
2022-11-28T23:51:21.186Z,101122.16
2022-11-28T23:53:49.846Z,101117.34
2022-11-28T23:56:23.633Z,101119.44
2022-11-28T23:58:51.773Z,101131.63
